• Join FlightAware (Why Join?)
  • Login
  • US Flag 
11:08PM EDT


 

Airport Tracker/Info


-or-


 

Live Flight TrackerFlight Track Log ✈ CCA4297 ✈ 14-Jul-2013 ✈ ZUCK / CKG - ZUJZ / JZH

Flight Track Log - Related Links

Times and Time Zones

All times are in EDT time to prevent confusion due to time zone crossing. See the CCA4297 flight status page for this flight to view local times or setup timezone preferences in your user account.

Time Position Orientation Groundspeed Altitude Reporting Facility
EDT Latitude Longitude Course Direction KTS MPH feet Rate Location/Type
07:10AM 29.9208 106.4587 322° Northwest  Level Estimated
07:11AM 29.9711 106.4130 322° Northwest  Level Estimated
07:12AM 30.0214 106.3673 322° Northwest  Level Estimated
07:13AM 30.0717 106.3215 322° Northwest  Level Estimated
07:14AM 30.1220 106.2756 322° Northwest  Level Estimated
07:15AM 30.1722 106.2298 322° Northwest  Level Estimated
07:16AM 30.2225 106.1838 322° Northwest  Level Estimated
07:17AM 30.2727 106.1379 322° Northwest  Level Estimated
07:18AM 30.3229 106.0918 322° Northwest  Level Estimated
07:19AM 30.3731 106.0458 322° Northwest  Level Estimated
07:20AM 30.4232 105.9996 322° Northwest  Level Estimated
07:21AM 30.4734 105.9535 322° Northwest  Level Estimated
07:22AM 30.5235 105.9073 322° Northwest  Level Estimated
07:23AM 30.5737 105.8610 322° Northwest  Level Estimated
07:24AM 30.6238 105.8147 322° Northwest  Level Estimated
07:25AM 30.6738 105.7684 321° Northwest  Level Estimated
07:26AM 30.7239 105.7220 321° Northwest  Level Estimated
07:27AM 30.7740 105.6755 321° Northwest  Level Estimated
07:28AM 30.8240 105.6290 321° Northwest  Level Estimated
07:29AM 30.8740 105.5825 321° Northwest  Level Estimated
07:30AM 30.9240 105.5359 321° Northwest  Level Estimated
07:31AM 30.9740 105.4892 321° Northwest  Level Estimated
07:32AM 31.0240 105.4425 321° Northwest  Level Estimated
07:33AM 31.0740 105.3958 321° Northwest  Level Estimated
07:34AM 31.1239 105.3490 321° Northwest  Level Estimated
07:35AM 31.1738 105.3021 321° Northwest  Level Estimated
07:36AM 31.2237 105.2553 321° Northwest  Level Estimated
07:37AM 31.2736 105.2083 321° Northwest  Level Estimated
07:38AM 31.3235 105.1613 321° Northwest  Level Estimated
07:39AM 31.3734 105.1143 321° Northwest  Level Estimated
07:40AM 31.4232 105.0672 321° Northwest  Level Estimated
07:41AM 31.4730 105.0201 321° Northwest  Level Estimated
07:42AM 31.5228 104.9729 321° Northwest  Level Estimated
07:43AM 31.5726 104.9256 321° Northwest  Level Estimated
07:44AM 31.6224 104.8783 321° Northwest  Level Estimated
07:45AM 31.6721 104.8310 321° Northwest  Level Estimated
07:46AM 31.7219 104.7836 321° Northwest  Level Estimated
07:46AM 32.4080 104.4680 321° Northwest 439 505 23,600  Level FlightAware
07:47AM 31.7716 104.7362 321° Northwest  Level Estimated
07:47AM 32.4090 104.4050 271° West 407 468 23,700  Level FlightAware
07:47AM 32.4100 104.3120 271° West 370 426 23,500 -720 Descending FlightAware
07:48AM 32.4220 104.2350 280° West 349 402 22,700 -1,440 Descending FlightAware
07:49AM 32.4640 104.1400 298° West 366 421 21,200 -960 Descending FlightAware
07:50AM 32.4920 104.0860 302° West 366 421 21,200  Level FlightAware
07:50AM 32.5190 104.0320 301° West 366 421 21,200  Level FlightAware
07:51AM 32.5560 103.9600 301° West 366 421 21,200  Level FlightAware
07:52AM 32.5820 103.9070 300° West 366 421 21,200  Level FlightAware
07:52AM 32.6190 103.8340 301° West 366 421 21,200  Level FlightAware
07:55AM 32.7386 103.7582 332° Northwest  Level Estimated
07:56AM 32.7951 103.7224 332° Northwest  Level Estimated
07:57AM 32.8515 103.6865 332° Northwest  Level Estimated
07:58AM 32.8570 103.6830 332° Northwest  Level Estimated
07:59AM 32.8570 103.6830 North  Level Estimated
08:00AM 32.8570 103.6830 North  Level Estimated
08:01AM 32.8570 103.6830 North  Level Estimated